Terminal Aerodrome Forecast
Issued by NWS Billings, MT

Home | Current Version | Previous Version | Graphics & Text | Print | Product List | Glossary On
Versions: 1 2 3 4 5 6 7 8 9 10 11 12 13 14 15 16 17 18 19 20 21 22 23 24 25 26 27 28 29 30
000
FTUS45 KBYZ 272323
TAFMLS
TAF
KMLS 272323Z 2800/2824 32011G20KT P6SM VCSH SCT080 BKN100
     FM280400 31008KT P6SM VCSH SCT090
     FM280800 27008KT P6SM SCT080 SCT100
     FM281200 VRB05KT P6SM VCSH SCT060 BKN100
     FM281600 31011G20KT P6SM SCT060
     FM282200 31011G20KT P6SM VCTS SCT060CB=

USA.gov is the U.S. government's official web portal to all federal, state and local government web resources and services.